createdAt,value
2022-11-24T00:01:10.758Z,10.25
2022-11-24T00:03:37.644Z,7.72
2022-11-24T00:06:10.859Z,11.40
2022-11-24T00:08:39.037Z,12.32
2022-11-24T00:11:13.272Z,9.40
2022-11-24T00:13:40.185Z,11.65
2022-11-24T00:16:17.389Z,15.85
2022-11-24T00:18:46.090Z,16.57
2022-11-24T00:21:13.993Z,13.93
2022-11-24T00:23:40.802Z,13.18
2022-11-24T00:26:11.922Z,22.35
2022-11-24T00:28:39.544Z,18.88
2022-11-24T00:31:23.514Z,20.07
2022-11-24T00:33:52.185Z,14.73
2022-11-24T00:36:20.135Z,9.77
2022-11-24T00:38:47.159Z,9.00
2022-11-24T00:41:14.443Z,8.52
2022-11-24T00:43:41.004Z,12.37
2022-11-24T00:46:07.669Z,9.80
2022-11-24T00:48:34.661Z,14.05
2022-11-24T00:51:05.488Z,14.50
2022-11-24T00:53:32.211Z,14.50
2022-11-24T00:55:58.916Z,13.00
2022-11-24T00:58:25.701Z,15.27
2022-11-24T01:00:52.934Z,16.75
2022-11-24T01:03:20.827Z,13.77
2022-11-24T01:05:47.904Z,22.50
2022-11-24T01:08:15.083Z,27.30
2022-11-24T01:10:41.638Z,17.98
2022-11-24T01:13:08.201Z,32.13
2022-11-24T01:15:36.571Z,23.02
2022-11-24T01:18:04.143Z,28.10
2022-11-24T01:20:31.317Z,19.57
2022-11-24T01:22:57.839Z,20.13
2022-11-24T01:25:24.358Z,17.45
2022-11-24T01:27:50.924Z,34.88
2022-11-24T01:30:17.671Z,27.73
2022-11-24T01:32:44.214Z,13.57
2022-11-24T01:35:10.962Z,17.08
2022-11-24T01:37:37.444Z,13.98
2022-11-24T01:40:04.561Z,15.52
2022-11-24T01:42:46.815Z,18.88
2022-11-24T01:45:28.509Z,16.90
2022-11-24T01:47:55.886Z,12.52
2022-11-24T01:50:23.076Z,13.85
2022-11-24T01:52:54.124Z,13.20
2022-11-24T01:55:25.691Z,16.73
2022-11-24T01:57:59.705Z,13.57
2022-11-24T02:00:26.234Z,7.30
2022-11-24T02:02:53.246Z,7.88
2022-11-24T02:05:37.773Z,8.65
2022-11-24T02:08:10.917Z,8.43
2022-11-24T02:10:49.099Z,16.30
2022-11-24T02:13:16.107Z,11.18
2022-11-24T02:15:42.845Z,14.38
2022-11-24T02:18:09.714Z,14.93
2022-11-24T02:20:36.617Z,14.30
2022-11-24T02:23:31.554Z,11.20
2022-11-24T02:25:57.980Z,16.70
2022-11-24T02:28:29.376Z,13.38
2022-11-24T02:30:56.788Z,24.13
2022-11-24T02:33:25.254Z,22.05
2022-11-24T02:35:52.624Z,26.17
2022-11-24T02:38:19.221Z,23.48
2022-11-24T02:40:49.296Z,21.38
2022-11-24T02:43:20.672Z,21.50
2022-11-24T02:45:47.925Z,16.77
2022-11-24T02:48:15.845Z,41.63
2022-11-24T02:50:42.431Z,29.13
2022-11-24T02:53:09.108Z,16.25
2022-11-24T02:55:35.637Z,20.00
2022-11-24T02:58:02.224Z,21.55
2022-11-24T03:00:28.698Z,11.53
2022-11-24T03:02:55.337Z,11.43
2022-11-24T03:05:21.976Z,8.20
2022-11-24T03:07:48.588Z,13.75
2022-11-24T03:10:16.292Z,5.65
2022-11-24T03:12:43.229Z,11.50
2022-11-24T03:15:10.226Z,9.55
2022-11-24T03:17:36.947Z,9.07
2022-11-24T03:20:05.206Z,18.95
2022-11-24T03:22:32.329Z,13.38
2022-11-24T03:24:59.257Z,11.80
2022-11-24T03:27:26.284Z,11.95
2022-11-24T03:29:52.830Z,10.60
2022-11-24T03:32:19.424Z,14.88
2022-11-24T03:34:45.971Z,14.85
2022-11-24T03:37:12.481Z,8.27
2022-11-24T03:39:39.292Z,16.58
2022-11-24T03:42:05.966Z,10.30
2022-11-24T03:44:32.967Z,12.13
2022-11-24T03:46:59.853Z,9.98
2022-11-24T03:49:26.388Z,13.50
2022-11-24T03:51:53.075Z,7.97
2022-11-24T03:54:19.821Z,12.77
2022-11-24T03:56:46.502Z,10.35
2022-11-24T03:59:13.216Z,9.70
2022-11-24T04:01:39.835Z,13.83
2022-11-24T04:04:06.407Z,7.32
2022-11-24T04:06:32.989Z,9.82
2022-11-24T04:09:00.494Z,11.43
2022-11-24T04:11:45.571Z,12.43
2022-11-24T04:14:13.755Z,12.90
2022-11-24T04:16:40.770Z,10.73
2022-11-24T04:19:07.529Z,8.90
2022-11-24T04:21:34.022Z,12.65
2022-11-24T04:24:00.781Z,10.07
2022-11-24T04:26:27.658Z,10.40
2022-11-24T04:28:54.275Z,8.77
2022-11-24T04:31:20.987Z,10.00
2022-11-24T04:33:47.594Z,11.77
2022-11-24T04:36:14.092Z,6.50
2022-11-24T04:39:24.086Z,13.70
2022-11-24T04:41:27.039Z,5.25
2022-11-24T04:43:53.661Z,6.32
2022-11-24T04:46:20.393Z,20.27
2022-11-24T04:48:46.964Z,8.48
2022-11-24T04:51:14.412Z,10.30
2022-11-24T04:53:41.251Z,13.80
2022-11-24T04:56:08.387Z,6.97
2022-11-24T04:58:35.291Z,8.43
2022-11-24T05:01:01.997Z,7.78
2022-11-24T05:03:28.540Z,11.17
2022-11-24T05:05:58.977Z,3.22
2022-11-24T05:08:25.564Z,8.75
2022-11-24T05:10:52.126Z,8.15
2022-11-24T05:13:18.742Z,8.48
2022-11-24T05:15:45.262Z,4.93
2022-11-24T05:18:15.358Z,3.78
2022-11-24T05:20:44.547Z,6.78
2022-11-24T05:23:11.303Z,5.05
2022-11-24T05:25:37.771Z,4.32
2022-11-24T05:28:06.389Z,3.23
2022-11-24T05:30:33.007Z,2.63
2022-11-24T05:32:59.763Z,3.10
2022-11-24T05:35:26.304Z,5.00
2022-11-24T05:37:52.812Z,7.25
2022-11-24T05:40:19.408Z,5.23
2022-11-24T05:42:48.060Z,5.63
2022-11-24T05:45:18.830Z,1.45
2022-11-24T05:47:46.469Z,7.75
2022-11-24T05:50:15.291Z,3.53
2022-11-24T05:52:43.768Z,6.57
2022-11-24T05:55:11.869Z,2.78
2022-11-24T05:57:38.425Z,2.55
2022-11-24T06:00:07.190Z,4.00
2022-11-24T06:02:33.865Z,4.15
2022-11-24T06:05:00.522Z,3.20
2022-11-24T06:07:27.155Z,1.30
2022-11-24T06:09:53.771Z,0.82
2022-11-24T06:12:20.523Z,1.90
2022-11-24T06:14:47.094Z,3.85
2022-11-24T06:17:13.651Z,3.83
2022-11-24T06:19:42.207Z,4.07
2022-11-24T06:22:08.947Z,2.55
2022-11-24T06:24:35.854Z,1.50
2022-11-24T06:27:02.533Z,3.53
2022-11-24T06:29:29.011Z,4.07
2022-11-24T06:31:55.439Z,1.77
2022-11-24T06:34:22.064Z,2.95
2022-11-24T06:36:48.554Z,2.92
2022-11-24T06:39:15.274Z,3.75
2022-11-24T06:41:41.753Z,4.93
2022-11-24T06:44:08.322Z,3.15
2022-11-24T06:46:34.866Z,1.65
2022-11-24T06:49:02.356Z,3.20
2022-11-24T06:51:29.177Z,3.47
2022-11-24T06:53:56.017Z,4.93
2022-11-24T06:56:22.768Z,3.67
2022-11-24T06:58:51.550Z,4.65
2022-11-24T07:01:21.477Z,2.53
2022-11-24T07:03:49.015Z,2.90
2022-11-24T07:06:16.748Z,3.40
2022-11-24T07:08:44.096Z,6.65
2022-11-24T07:11:18.734Z,4.93
2022-11-24T07:13:46.358Z,4.60
2022-11-24T07:16:18.968Z,4.32
2022-11-24T07:18:47.148Z,3.90
2022-11-24T07:21:14.443Z,5.57
2022-11-24T07:23:41.031Z,3.90
2022-11-24T07:26:09.268Z,4.55
2022-11-24T07:28:36.959Z,3.55
2022-11-24T07:31:12.526Z,3.53
2022-11-24T07:33:39.791Z,3.83
2022-11-24T07:36:08.066Z,6.65
2022-11-24T07:38:35.625Z,3.53
2022-11-24T07:41:04.087Z,8.18
2022-11-24T07:43:35.435Z,4.90
2022-11-24T07:46:02.611Z,8.90
2022-11-24T07:48:29.382Z,9.98
2022-11-24T07:50:59.310Z,6.53
2022-11-24T07:53:26.237Z,6.00
2022-11-24T07:55:56.638Z,6.83
2022-11-24T07:58:23.290Z,9.85
2022-11-24T08:00:50.104Z,7.05
2022-11-24T08:03:16.720Z,7.90
2022-11-24T08:06:07.698Z,5.68
2022-11-24T08:08:33.404Z,3.67
2022-11-24T08:11:08.077Z,4.95
2022-11-24T08:13:35.980Z,4.05
2022-11-24T08:16:14.963Z,4.80
2022-11-24T08:18:42.624Z,5.38
2022-11-24T08:21:12.959Z,3.40
2022-11-24T08:23:39.830Z,4.85
2022-11-24T08:26:09.363Z,4.20
2022-11-24T08:28:36.765Z,4.32
2022-11-24T08:31:06.015Z,3.53
2022-11-24T08:33:32.851Z,8.00
2022-11-24T08:36:05.018Z,4.57
2022-11-24T08:38:31.684Z,3.95
2022-11-24T08:41:07.068Z,4.20
2022-11-24T08:43:33.852Z,4.50
2022-11-24T08:46:03.678Z,6.77
2022-11-24T08:48:30.795Z,6.93
2022-11-24T08:51:08.082Z,6.00
2022-11-24T08:53:34.691Z,9.05
2022-11-24T08:56:01.340Z,6.30
2022-11-24T08:58:31.772Z,7.87
2022-11-24T09:01:13.945Z,5.07
2022-11-24T09:03:49.700Z,3.47
2022-11-24T09:06:25.077Z,2.92
2022-11-24T09:08:53.359Z,4.10
2022-11-24T09:11:20.352Z,8.27
2022-11-24T09:13:47.299Z,5.50
2022-11-24T09:16:15.611Z,4.78
2022-11-24T09:18:42.648Z,4.40
2022-11-24T09:21:17.622Z,2.78
2022-11-24T09:23:45.809Z,5.60
2022-11-24T09:26:18.140Z,8.30
2022-11-24T09:28:46.025Z,3.70
2022-11-24T09:31:14.685Z,4.35
2022-11-24T09:33:41.726Z,5.55
2022-11-24T09:36:09.090Z,3.90
2022-11-24T09:38:35.919Z,5.20
2022-11-24T09:41:31.270Z,5.43
2022-11-24T09:44:22.326Z,9.07
2022-11-24T09:47:02.435Z,4.35
2022-11-24T09:49:36.050Z,6.40
2022-11-24T09:52:09.874Z,5.22
2022-11-24T09:54:51.399Z,10.43
2022-11-24T09:57:21.612Z,5.72
2022-11-24T09:59:48.394Z,3.42
2022-11-24T10:02:15.030Z,11.40
2022-11-24T10:04:46.809Z,4.97
2022-11-24T10:07:42.582Z,7.93
2022-11-24T10:10:26.035Z,6.13
2022-11-24T10:13:23.108Z,9.85
2022-11-24T10:16:11.189Z,7.87
2022-11-24T10:18:42.937Z,8.05
2022-11-24T10:21:15.358Z,13.15
2022-11-24T10:23:49.963Z,12.32
2022-11-24T10:26:26.795Z,8.48
2022-11-24T10:28:55.644Z,6.30
2022-11-24T10:31:24.066Z,10.63
2022-11-24T10:33:51.367Z,10.00
2022-11-24T10:36:37.862Z,6.43
2022-11-24T10:39:18.733Z,6.72
2022-11-24T10:42:03.223Z,6.20
2022-11-24T10:44:30.613Z,8.32
2022-11-24T10:46:58.079Z,7.93
2022-11-24T10:49:33.291Z,5.65
2022-11-24T10:52:15.357Z,4.30
2022-11-24T10:55:03.388Z,4.80
2022-11-24T10:57:33.875Z,5.28
2022-11-24T11:00:02.140Z,6.57
2022-11-24T11:02:39.569Z,9.52
2022-11-24T11:05:35.327Z,9.35
2022-11-24T11:08:15.126Z,5.00
2022-11-24T11:10:43.868Z,8.30
2022-11-24T11:13:31.505Z,9.90
2022-11-24T11:15:59.548Z,7.97
2022-11-24T11:18:32.549Z,6.57
2022-11-24T11:21:04.388Z,10.33
2022-11-24T11:23:35.443Z,9.15
2022-11-24T11:26:23.041Z,9.05
2022-11-24T11:35:03.788Z,18.27
2022-11-24T11:37:33.534Z,7.95
2022-11-24T11:40:01.255Z,11.02
2022-11-24T11:43:01.518Z,6.97
2022-11-24T11:45:36.564Z,6.70
2022-11-24T11:48:03.581Z,15.87
2022-11-24T11:51:14.816Z,9.75
2022-11-24T11:53:46.220Z,14.20
2022-11-24T11:56:29.001Z,13.48
2022-11-24T11:59:25.364Z,9.98
2022-11-24T12:02:21.041Z,8.17
2022-11-24T12:05:01.328Z,5.97
2022-11-24T12:07:50.377Z,6.43
2022-11-24T12:10:53.178Z,11.65
2022-11-24T12:13:32.215Z,8.35
2022-11-24T12:16:11.739Z,14.67
2022-11-24T12:18:58.215Z,8.23
2022-11-24T12:21:43.985Z,11.95
2022-11-24T12:24:28.377Z,12.10
2022-11-24T12:27:20.917Z,4.68
2022-11-24T12:30:16.796Z,11.73
2022-11-24T12:32:43.368Z,12.30
2022-11-24T12:35:28.911Z,12.60
2022-11-24T12:38:04.232Z,10.65
2022-11-24T12:41:18.240Z,6.82
2022-11-24T12:43:52.354Z,9.37
2022-11-24T12:46:46.257Z,9.60
2022-11-24T12:49:12.788Z,8.32
2022-11-24T12:51:43.767Z,6.47
2022-11-24T12:54:14.131Z,12.50
2022-11-24T12:56:45.603Z,8.17
2022-11-24T12:59:20.962Z,5.97
2022-11-24T13:02:04.659Z,8.57
2022-11-24T13:04:40.523Z,7.85
2022-11-24T13:07:27.512Z,9.20
2022-11-24T13:13:13.336Z,9.65
2022-11-24T13:16:20.612Z,11.50
2022-11-24T13:19:09.171Z,7.72
2022-11-24T13:21:42.998Z,7.18
2022-11-24T13:24:19.733Z,8.10
2022-11-24T13:26:53.061Z,10.65
2022-11-24T13:29:29.089Z,7.80
2022-11-24T13:31:56.013Z,7.00
2022-11-24T13:34:46.042Z,9.05
2022-11-24T13:37:31.459Z,14.60
2022-11-24T13:40:14.362Z,14.88
2022-11-24T13:42:59.227Z,10.38
2022-11-24T13:45:45.270Z,17.98
2022-11-24T13:48:21.150Z,12.95
2022-11-24T13:50:51.455Z,9.23
2022-11-24T13:53:35.203Z,6.45
2022-11-24T13:56:14.002Z,12.80
2022-11-24T13:58:42.165Z,6.50
2022-11-24T14:01:22.019Z,6.82
2022-11-24T14:06:52.390Z,5.10
2022-11-24T14:09:27.677Z,6.68
2022-11-24T14:12:06.676Z,10.07
2022-11-24T14:14:33.797Z,18.83
2022-11-24T14:17:07.407Z,7.57
2022-11-24T14:19:34.388Z,13.85
2022-11-24T14:22:01.056Z,9.57
2022-11-24T14:24:39.840Z,12.15
2022-11-24T14:27:14.845Z,11.38
2022-11-24T14:29:54.765Z,7.57
2022-11-24T14:32:22.204Z,9.88
2022-11-24T14:34:52.306Z,9.35
2022-11-24T14:37:20.251Z,9.15
2022-11-24T14:39:49.667Z,13.68
2022-11-24T14:42:27.602Z,17.23
2022-11-24T14:44:54.354Z,10.20
2022-11-24T14:47:32.285Z,7.95
2022-11-24T14:50:15.500Z,6.53
2022-11-24T14:52:47.107Z,6.65
2022-11-24T14:55:26.270Z,10.80
2022-11-24T14:57:53.149Z,10.75
2022-11-24T15:00:28.581Z,9.20
2022-11-24T15:03:13.614Z,5.80
2022-11-24T15:05:51.449Z,7.43
2022-11-24T15:08:18.521Z,12.23
2022-11-24T15:10:45.528Z,12.45
2022-11-24T15:13:24.214Z,11.73
2022-11-24T15:16:00.584Z,10.48
2022-11-24T15:18:38.951Z,10.70
2022-11-24T15:21:05.998Z,6.57
2022-11-24T15:23:35.591Z,19.58
2022-11-24T15:26:02.139Z,11.02
2022-11-24T15:28:31.081Z,14.38
2022-11-24T15:31:04.093Z,12.77
2022-11-24T15:33:31.384Z,6.70
2022-11-24T15:35:58.284Z,7.28
2022-11-24T15:38:24.804Z,18.50
2022-11-24T15:40:54.807Z,8.38
2022-11-24T15:43:33.602Z,18.25
2022-11-24T15:46:01.701Z,10.40
2022-11-24T15:48:28.892Z,10.40
2022-11-24T15:50:57.143Z,15.23
2022-11-24T15:53:45.350Z,13.90
2022-11-24T15:56:18.079Z,10.02
2022-11-24T15:58:44.904Z,18.10
2022-11-24T16:01:11.454Z,9.85
2022-11-24T16:03:47.145Z,7.57
2022-11-24T16:06:23.358Z,15.32
2022-11-24T16:08:51.238Z,8.32
2022-11-24T16:11:17.815Z,12.23
2022-11-24T16:13:51.545Z,14.60
2022-11-24T16:16:19.379Z,8.25
2022-11-24T16:18:46.071Z,8.52
2022-11-24T16:21:12.711Z,9.50
2022-11-24T16:23:40.438Z,11.57
2022-11-24T16:26:07.249Z,16.10
2022-11-24T16:28:34.256Z,13.77
2022-11-24T16:31:01.235Z,10.43
2022-11-24T16:33:29.954Z,7.10
2022-11-24T16:35:56.539Z,9.53
2022-11-24T16:38:23.330Z,13.70
2022-11-24T16:40:58.551Z,10.60
2022-11-24T16:43:25.081Z,12.98
2022-11-24T16:46:04.516Z,12.40
2022-11-24T16:48:36.242Z,14.03
2022-11-24T16:51:07.216Z,7.07
2022-11-24T16:53:34.028Z,12.65
2022-11-24T16:56:00.547Z,18.50
2022-11-24T16:58:27.082Z,10.07
2022-11-24T17:00:53.853Z,10.10
2022-11-24T17:03:20.559Z,14.15
2022-11-24T17:06:08.520Z,8.95
2022-11-24T17:08:38.460Z,12.48
2022-11-24T17:11:10.117Z,11.85
2022-11-24T17:13:36.879Z,12.73
2022-11-24T17:16:07.895Z,15.55
2022-11-24T17:18:34.891Z,9.80
2022-11-24T17:21:07.654Z,9.40
2022-11-24T17:23:35.933Z,13.07
2022-11-24T17:26:04.607Z,8.63
2022-11-24T17:28:31.105Z,10.57
2022-11-24T17:30:57.650Z,5.55
2022-11-24T17:33:24.171Z,14.80
2022-11-24T17:35:50.706Z,10.05
2022-11-24T17:38:17.194Z,7.37
2022-11-24T17:40:47.887Z,11.23
2022-11-24T17:43:14.360Z,12.02
2022-11-24T17:45:40.969Z,8.88
2022-11-24T17:48:07.573Z,10.70
2022-11-24T17:50:34.091Z,13.57
2022-11-24T17:53:01.078Z,8.32
2022-11-24T17:55:27.563Z,7.95
2022-11-24T17:57:56.219Z,8.55
2022-11-24T18:00:22.941Z,11.10
2022-11-24T18:02:50.023Z,9.73
2022-11-24T18:05:16.817Z,9.77
2022-11-24T18:07:43.476Z,8.45
2022-11-24T18:10:10.726Z,10.95
2022-11-24T18:13:06.290Z,9.07
2022-11-24T18:15:35.629Z,10.10
2022-11-24T18:18:03.112Z,9.98
2022-11-24T18:20:29.602Z,11.63
2022-11-24T18:23:05.492Z,11.23
2022-11-24T18:25:33.232Z,4.38
2022-11-24T18:27:59.846Z,8.97
2022-11-24T18:30:26.347Z,7.32
2022-11-24T18:32:52.919Z,11.23
2022-11-24T18:35:19.556Z,10.95
2022-11-24T18:37:46.153Z,10.07
2022-11-24T18:40:12.854Z,8.67
2022-11-24T18:42:39.455Z,11.20
2022-11-24T18:45:06.559Z,9.30
2022-11-24T18:47:33.725Z,10.00
2022-11-24T18:50:00.495Z,10.38
2022-11-24T18:52:27.622Z,7.20
2022-11-24T18:54:54.211Z,12.27
2022-11-24T18:57:20.795Z,6.70
2022-11-24T18:59:47.271Z,7.57
2022-11-24T19:02:13.828Z,8.35
2022-11-24T19:04:40.372Z,7.30
2022-11-24T19:07:06.837Z,7.72
2022-11-24T19:09:33.422Z,8.77
2022-11-24T19:12:00.117Z,11.52
2022-11-24T19:14:26.639Z,4.88
2022-11-24T19:16:53.163Z,12.77
2022-11-24T19:19:19.718Z,7.38
2022-11-24T19:21:46.454Z,9.02
2022-11-24T19:24:15.826Z,5.70
2022-11-24T19:26:42.526Z,10.40
2022-11-24T19:29:09.627Z,13.07
2022-11-24T19:31:38.436Z,6.68
2022-11-24T19:34:05.980Z,11.00
2022-11-24T19:36:32.656Z,9.35
2022-11-24T19:38:59.600Z,10.52
2022-11-24T19:41:28.895Z,5.13
2022-11-24T19:43:56.712Z,6.13
2022-11-24T19:46:27.204Z,6.00
2022-11-24T19:48:56.370Z,8.82
2022-11-24T19:51:25.617Z,18.27
2022-11-24T19:53:53.074Z,7.23
2022-11-24T19:56:25.181Z,5.75
2022-11-24T19:58:53.168Z,8.82
2022-11-24T20:01:34.459Z,9.98
2022-11-24T20:04:04.182Z,9.93
2022-11-24T20:06:34.602Z,8.87
2022-11-24T20:09:01.700Z,10.70
2022-11-24T20:11:28.976Z,8.82
2022-11-24T20:13:56.221Z,4.85
2022-11-24T20:16:29.584Z,7.07
2022-11-24T20:19:00.168Z,11.57
2022-11-24T20:21:29.035Z,5.32
2022-11-24T20:24:02.375Z,12.85
2022-11-24T20:26:31.916Z,6.90
2022-11-24T20:28:59.763Z,11.13
2022-11-24T20:31:29.517Z,11.27
2022-11-24T20:33:56.927Z,7.60
2022-11-24T20:36:26.490Z,7.82
2022-11-24T20:38:53.762Z,13.00
2022-11-24T20:41:25.809Z,6.43
2022-11-24T20:43:53.762Z,10.77
2022-11-24T20:46:29.428Z,11.68
2022-11-24T20:48:57.132Z,10.52
2022-11-24T20:51:27.810Z,7.97
2022-11-24T20:53:58.542Z,11.20
2022-11-24T20:56:31.300Z,4.87
2022-11-24T20:58:58.890Z,5.20
2022-11-24T21:01:31.713Z,8.32
2022-11-24T21:03:59.631Z,8.82
2022-11-24T21:06:27.932Z,8.88
2022-11-24T21:09:00.454Z,7.70
2022-11-24T21:11:30.191Z,10.10
2022-11-24T21:13:57.116Z,6.10
2022-11-24T21:16:29.069Z,10.40
2022-11-24T21:18:59.666Z,6.43
2022-11-24T21:21:33.349Z,7.07
2022-11-24T21:24:07.124Z,9.25
2022-11-24T21:26:37.305Z,7.60
2022-11-24T21:29:04.943Z,11.05
2022-11-24T21:31:34.813Z,7.85
2022-11-24T21:34:01.350Z,9.97
2022-11-24T21:36:27.943Z,11.57
2022-11-24T21:38:56.507Z,4.93
2022-11-24T21:41:24.748Z,11.57
2022-11-24T21:43:53.127Z,8.50
2022-11-24T21:46:19.737Z,8.27
2022-11-24T21:48:46.588Z,7.90
2022-11-24T21:51:16.065Z,8.23
2022-11-24T21:53:43.411Z,10.60
2022-11-24T21:56:13.344Z,7.20
2022-11-24T21:58:50.007Z,11.07
2022-11-24T22:01:19.007Z,9.32
2022-11-24T22:03:46.103Z,12.02
2022-11-24T22:06:13.081Z,4.40
2022-11-24T22:08:39.538Z,5.28
2022-11-24T22:11:09.895Z,7.87
2022-11-24T22:13:36.491Z,8.55
2022-11-24T22:16:06.715Z,10.75
2022-11-24T22:18:35.106Z,15.95
2022-11-24T22:21:04.827Z,7.85
2022-11-24T22:23:32.617Z,11.30
2022-11-24T22:26:11.157Z,9.18
2022-11-24T22:28:38.462Z,9.73
2022-11-24T22:31:07.139Z,10.32
2022-11-24T22:33:34.247Z,9.98
2022-11-24T22:36:01.334Z,7.83
2022-11-24T22:38:28.945Z,11.18
2022-11-24T22:41:00.102Z,7.82
2022-11-24T22:43:26.535Z,14.23
2022-11-24T22:45:53.168Z,10.27
2022-11-24T22:48:19.858Z,10.07
2022-11-24T22:50:46.489Z,7.63
2022-11-24T22:53:13.018Z,11.73
2022-11-24T22:55:39.521Z,5.70
2022-11-24T22:58:06.104Z,8.18
2022-11-24T23:00:32.673Z,8.47
2022-11-24T23:02:59.318Z,7.72
2022-11-24T23:05:25.916Z,4.72
2022-11-24T23:07:52.574Z,7.57
2022-11-24T23:10:19.223Z,13.82
2022-11-24T23:12:45.673Z,12.10
2022-11-24T23:15:12.411Z,8.77
2022-11-24T23:17:38.930Z,8.40
2022-11-24T23:20:06.530Z,14.75
2022-11-24T23:22:33.282Z,12.88
2022-11-24T23:24:59.832Z,9.03
2022-11-24T23:27:26.310Z,13.85
2022-11-24T23:29:52.819Z,7.47
2022-11-24T23:32:19.547Z,6.50
2022-11-24T23:34:46.196Z,10.48
2022-11-24T23:37:12.655Z,10.53
2022-11-24T23:39:39.378Z,12.57
2022-11-24T23:42:06.086Z,10.88
2022-11-24T23:44:32.865Z,7.57
2022-11-24T23:46:59.471Z,13.60
2022-11-24T23:49:26.034Z,7.67
2022-11-24T23:51:52.547Z,11.27
2022-11-24T23:54:19.178Z,11.23
2022-11-24T23:56:45.639Z,13.30
2022-11-24T23:59:12.538Z,7.28
